Greensboro, NC (27407)

8:58 PM EST on December 27, 2014 (GMT -0500)
SW Greensboro | Change Station
CLOSE
Current Station
Personal Weather Station
Location: Greensboro, NC
Elevation: 870 ft
Nearby Weather Stations

Elev 870 ft 36.04 °N, 79.87 °W | Updated 21 seconds ago

Mostly Cloudy
Mostly Cloudy
49.5 °F
Feels Like 50 °F
N
0.0
Wind Variable Wind from WSW
Gusts 0.0 mph

Today
High -- | Low -- °F
--% Chance of Precip.
Yesterday
High -- | Low -- °F
Precip. -- in
7:28 AM 5:12 PM
Waxing Crescent, 42% visible
Pressure 30.20 in
Visibility 10.0 miles
Clouds Mostly Cloudy 25000 ft
Windchill 50 °F
Dew Point 39 °F
Humidity 67%
Rainfall 0.00 in
Snow Depth Not available.
UV 0 out of 12
Pollen 2.00 out of 12
Air Quality Not available.
Flu Activity Not available.
METAR KGSO 280154Z 20005KT 10SM BKN250 11/04 A3019 RMK AO2 SLP225 T01060039

More Conditions Fewer Conditions

Pressure 30.20 in
Visibility 10.0 miles
Clouds Mostly Cloudy 25000 ft
Windchill 50 °F
Dew Point 39 °F
Humidity 67%
Rainfall 0.00 in
Snow Depth Not available.
UV 0 out of 12
Pollen 2.00 out of 12
Air Quality Not available.
Flu Activity Not available.
METAR KGSO 280154Z 20005KT 10SM BKN250 11/04 A3019 RMK AO2 SLP225 T01060039

More Conditions Fewer Conditions

10-Day Weather Forecast

Almanac

Astronomy

Dec. 27, 2014 Rise Set
Actual Time
Civil Twilight
Nautical Twilight
Astronomical Twilight
Moon
Length of Visible Light
Length of Day
Tomorrow will be .
, % of the Moon is Illuminated

Today's Extremes

State Highs State Lows

Community

WunderPhotos

Upload Photos

1,781,124 photos uploaded!

WunderBlogs® & News

Nearby

Air Quality

  Air Quality AQ Index Pollutant
Not available.

Snow Depth

Station Depth Elevation

Earthquake Activity

City Distance Mag. Time & Date
Minimum magnitude displayed is 2.5.

Coastal Water Temperatures

Place Temperature

Nearby Weather Stations